Detalii statie S.C. COSTANDACHE [000011A0]

Toti senzorii

Date Temperatura solului [C]Precipitatii [mm]Voltaj baterie [mV]Leaf Wetness [Min]HC Air temperature [C]HC Relative humidity [%]Punctul de roua [C]
medieminmaxsumaultimatimpmedieminmaxmediemediemin
2019-10-19 23:00:00 15.6 15.6 15.7 0 6630 20 11.31 11.03 11.46 0 0 0
2019-10-19 23:30:00 15.6 15.4 16.2 0 6620 30 10.54 10.29 10.87 0 0 0
2019-10-20 00:00:00 15.3 15.2 15.4 0 6620 30 10.08 9.83 10.24 0 0 0
2019-10-20 00:30:00 15.2 15.1 15.6 0 6630 30 10.33 9.88 11.12 0 0 0
2019-10-20 01:00:00 15 15 15.3 0 6620 30 10.99 10.54 11.47 0 0 0
2019-10-20 01:30:00 14.9 14.8 15 0 6630 30 10.58 10.23 10.81 0 0 0
2019-10-20 02:00:00 14.8 14.7 15 0 6630 30 10.39 10.19 10.56 0 0 0
2019-10-20 02:30:00 14.7 14.6 14.9 0 6620 30 11.69 11.07 12.04 0 0 0
2019-10-20 03:00:00 14.6 14.5 14.8 0 6630 30 10.86 9.79 12.31 0 0 0
2019-10-20 03:30:00 14.5 14.5 14.7 0 6600 30 9.61 9.32 9.9 0 0 0
2019-10-20 04:00:00 14.4 14.4 14.6 0 6600 30 9.19 8.92 9.77 0 0 0
2019-10-20 04:30:00 14.3 14.3 14.4 0 6610 30 9.33 9.11 9.72 0 0 0
2019-10-20 05:00:00 14.3 14.1 15 0 6610 30 9.23 9.16 9.41 0 0 0
2019-10-20 05:30:00 14.1 13.9 14.3 0 6600 30 9.67 9.49 9.9 0 0 0
2019-10-20 06:00:00 14.2 14 14.9 0 6610 30 10 9.93 10.11 0 0 0
2019-10-20 06:30:00 14.2 14 14.9 0 6600 30 10.29 10.17 10.44 0 0 0
2019-10-20 07:00:00 14 14 14.2 0 6610 30 10.64 10.54 10.76 0 0 0
2019-10-20 07:30:00 14 14 14.2 0 6600 30 10.84 10.78 10.91 0 0 0
2019-10-20 08:00:00 14.3 14 14.8 0.2 6590 30 11.04 10.97 11.1 0 0 0
2019-10-20 08:30:00 14.1 14 14.8 0 6610 30 11.24 11.13 11.33 0 0 0
2019-10-20 09:00:00 14.3 14.2 14.4 0 6610 30 11.62 11.45 11.77 0 0 0
2019-10-20 09:30:00 14.2 14.1 14.3 0 6620 30 12.17 11.85 12.52 1.96 -23.7 0
2019-10-20 10:00:00 14.2 14.2 14.3 0 6650 30 12.84 12.58 13.13 8.98 -20.3 -26
2019-10-20 10:30:00 14.5 14.4 14.6 0 6668 30 13.79 13.42 14.27 27.29 -5.3 -11.8
2019-10-20 11:00:00 14.6 14.5 14.7 0 6816 30 14.97 14.28 15.66 55.54 5.8 1.8
2019-10-20 11:30:00 14.9 14.9 15.1 0 6962 30 16.95 16.31 17.95 92.58 15.5 11.8
2019-10-20 12:00:00 15.3 15.1 15.5 0 6972 0 18.48 17.6 19.64 28.66 -4.9 0
2019-10-20 12:30:00 15.6 15.5 15.9 0 6982 0 21.94 20.38 23.18 0 0 0
2019-10-20 13:00:00 16.1 15.8 17 0 6992 0 23.26 22.88 23.89 0.01 0 0
2019-10-20 13:30:00 16.6 16.5 16.8 0 6972 0 23.94 23.43 24.41 0 0 0
2019-10-20 14:00:00 17.1 17 17.3 0 6972 0 24.7 24.01 25.14 0 0 0
2019-10-20 14:30:00 17.6 17.5 17.8 0 6972 0 25.41 25.11 25.77 0 0 0
2019-10-20 15:00:00 18 18 18.1 0 6982 0 25.51 25.06 25.98 0 0 0
2019-10-20 15:30:00 18.4 18.2 19.2 0 6962 0 25.82 25.56 26.08 0 0 0
2019-10-20 16:00:00 18.6 18.5 19.1 0 6962 0 25.74 25.55 26.2 0 0 0
2019-10-20 16:30:00 18.6 18.5 18.7 0 6952 0 25.76 25.52 25.97 0 0 0
2019-10-20 17:00:00 18.5 18.5 18.7 0 6776 0 24.85 24.28 25.26 0 0 0
2019-10-20 17:30:00 18.4 18.4 18.6 0 6914 0 23.74 23.17 24.12 0 0 0
2019-10-20 18:00:00 18.4 18.4 18.9 0 6728 0 21.82 20.65 22.85 0 0 0
2019-10-20 18:30:00 18.1 18 18.3 0 6698 0 19.3 18.43 20.26 0 0 0
2019-10-20 19:00:00 17.9 17.8 18.1 0 6688 0 17.52 17.02 18.15 0 0 0
2019-10-20 19:30:00 17.7 17.6 17.8 0 6678 0 16.35 15.82 16.92 0 0 0
2019-10-20 20:00:00 17.5 17.5 17.7 0 6678 0 16.48 15.71 17.12 0 0 0
2019-10-20 20:30:00 17.3 17.2 17.5 0 6668 0 17.13 17.11 17.19 0 0 0
2019-10-20 21:00:00 17.2 17.1 17.4 0 6650 0 16.69 16.49 16.99 0 0 0
2019-10-20 21:30:00 17 16.9 17.2 0 6660 0 16.08 15.58 16.45 0 0 0
2019-10-20 22:00:00 17 16.8 17.5 0 6660 0 15.58 15.41 15.66 0 0 0
2019-10-20 22:30:00 16.8 16.7 16.9 0 6650 0 14.95 14.82 15.18 0 0 0